createdAt,value
2019-03-25T00:02:04.213Z,80.50
2019-03-25T00:04:32.076Z,80.80
2019-03-25T00:06:59.980Z,80.80
2019-03-25T00:09:27.906Z,81.00
2019-03-25T00:11:55.880Z,81.20
2019-03-25T00:14:23.822Z,81.30
2019-03-25T00:16:51.649Z,81.60
2019-03-25T00:19:19.537Z,81.70
2019-03-25T00:21:47.433Z,82.20
2019-03-25T00:24:15.323Z,82.20
2019-03-25T00:26:43.230Z,82.30
2019-03-25T00:29:11.112Z,82.50
2019-03-25T00:31:39.016Z,82.60
2019-03-25T00:34:06.912Z,82.60
2019-03-25T00:36:34.837Z,82.60
2019-03-25T00:39:04.270Z,82.90
2019-03-25T00:41:32.216Z,83.00
2019-03-25T00:44:00.167Z,83.10
2019-03-25T00:46:28.046Z,83.20
2019-03-25T00:48:55.960Z,83.20
2019-03-25T00:51:23.788Z,83.40
2019-03-25T00:53:58.821Z,83.80
2019-03-25T00:56:26.815Z,83.80
2019-03-25T00:58:54.806Z,83.90
2019-03-25T01:01:22.749Z,84.20
2019-03-25T01:03:50.679Z,84.10
2019-03-25T01:06:18.576Z,84.20
2019-03-25T01:08:46.512Z,84.10
2019-03-25T01:11:14.496Z,84.30
2019-03-25T01:13:42.393Z,84.40
2019-03-25T01:16:10.338Z,84.40
2019-03-25T01:18:38.220Z,84.40
2019-03-25T01:21:06.120Z,84.40
2019-03-25T01:23:34.136Z,84.40
2019-03-25T01:26:02.106Z,84.40
2019-03-25T01:28:30.010Z,84.40
2019-03-25T01:30:57.933Z,84.40
2019-03-25T01:33:25.912Z,84.40
2019-03-25T01:35:53.785Z,84.50
2019-03-25T01:38:21.714Z,84.50
2019-03-25T01:40:49.622Z,84.60
2019-03-25T01:43:17.520Z,84.60
2019-03-25T01:45:45.508Z,84.70
2019-03-25T01:48:13.508Z,84.70
2019-03-25T01:50:41.412Z,84.90
2019-03-25T01:53:09.350Z,84.80
2019-03-25T01:55:37.222Z,84.70
2019-03-25T01:58:05.044Z,84.50
2019-03-25T02:00:33.132Z,84.50
2019-03-25T02:03:01.024Z,84.30
2019-03-25T02:05:28.898Z,84.20
2019-03-25T02:07:56.704Z,84.10
2019-03-25T02:10:24.502Z,83.90
2019-03-25T02:12:52.394Z,83.80
2019-03-25T02:15:20.272Z,83.60
2019-03-25T02:17:48.184Z,83.40
2019-03-25T02:20:25.734Z,83.20
2019-03-25T02:22:46.001Z,83.70
2019-03-25T02:25:24.766Z,82.70
2019-03-25T02:27:43.918Z,82.40
2019-03-25T02:30:14.201Z,82.10
2019-03-25T02:32:42.082Z,81.80
2019-03-25T02:35:09.993Z,81.50
2019-03-25T02:37:37.881Z,81.30
2019-03-25T02:40:05.905Z,81.00
2019-03-25T02:42:33.817Z,80.80
2019-03-25T02:45:01.792Z,80.60
2019-03-25T02:47:29.765Z,80.50
2019-03-25T02:49:57.678Z,80.40
2019-03-25T02:52:25.584Z,80.20
2019-03-25T02:54:53.492Z,80.00
2019-03-25T02:57:21.278Z,79.90
2019-03-25T02:59:49.191Z,79.90
2019-03-25T03:02:17.092Z,79.80
2019-03-25T03:04:44.983Z,79.70
2019-03-25T03:07:12.891Z,79.60
2019-03-25T03:09:40.812Z,79.50
2019-03-25T03:12:08.848Z,79.50
2019-03-25T03:14:36.823Z,79.50
2019-03-25T03:17:04.716Z,79.50
2019-03-25T03:19:32.637Z,79.50
2019-03-25T03:22:00.554Z,79.60
2019-03-25T03:24:28.377Z,79.70
2019-03-25T03:26:56.273Z,79.80
2019-03-25T03:29:24.152Z,80.00
2019-03-25T03:31:52.024Z,80.00
2019-03-25T03:34:19.853Z,80.20
2019-03-25T03:36:47.783Z,81.10
2019-03-25T03:39:15.586Z,80.40
2019-03-25T03:41:43.482Z,80.70
2019-03-25T03:44:11.330Z,80.80
2019-03-25T03:46:39.413Z,80.90
2019-03-25T03:49:07.270Z,81.10
2019-03-25T03:51:35.165Z,81.20
2019-03-25T03:54:02.950Z,81.30
2019-03-25T03:56:31.266Z,81.30
2019-03-25T03:59:01.546Z,81.50
2019-03-25T04:01:29.602Z,81.50
2019-03-25T04:03:57.495Z,81.70
2019-03-25T04:06:25.416Z,81.70
2019-03-25T04:08:53.303Z,82.00
2019-03-25T04:11:21.218Z,82.10
2019-03-25T04:13:49.151Z,82.20
2019-03-25T04:16:17.205Z,82.50
2019-03-25T04:18:45.216Z,82.50
2019-03-25T04:21:13.098Z,83.50
2019-03-25T04:23:41.061Z,82.90
2019-03-25T04:26:08.930Z,83.20
2019-03-25T04:28:36.797Z,83.60
2019-03-25T04:31:04.789Z,83.70
2019-03-25T04:33:32.654Z,83.80
2019-03-25T04:36:01.416Z,84.00
2019-03-25T04:38:29.203Z,84.40
2019-03-25T04:40:57.153Z,84.70
2019-03-25T04:43:25.047Z,84.70
2019-03-25T04:45:53.087Z,84.90
2019-03-25T04:48:20.968Z,84.90
2019-03-25T04:50:48.882Z,85.00
2019-03-25T04:53:16.768Z,85.20
2019-03-25T04:55:44.628Z,85.30
2019-03-25T04:58:12.528Z,85.70
2019-03-25T05:00:40.462Z,85.80
2019-03-25T05:03:08.514Z,86.00
2019-03-25T05:05:36.645Z,86.40
2019-03-25T05:08:04.582Z,86.80
2019-03-25T05:10:32.550Z,87.50
2019-03-25T05:13:00.644Z,88.70
2019-03-25T05:15:28.695Z,90.00
2019-03-25T05:17:56.628Z,90.30
2019-03-25T05:20:24.661Z,90.60
2019-03-25T05:22:52.638Z,91.20
2019-03-25T05:25:20.935Z,91.60
2019-03-25T05:27:48.856Z,92.00
2019-03-25T05:30:16.801Z,92.60
2019-03-25T05:32:44.611Z,93.20
2019-03-25T05:35:12.590Z,93.60
2019-03-25T05:37:40.492Z,93.90
2019-03-25T05:40:08.517Z,94.10
2019-03-25T05:42:36.390Z,94.30
2019-03-25T05:45:04.490Z,94.40
2019-03-25T05:47:32.395Z,94.40
2019-03-25T05:50:00.397Z,94.60
2019-03-25T05:52:28.380Z,94.80
2019-03-25T05:54:56.289Z,94.90
2019-03-25T05:57:24.288Z,94.90
2019-03-25T05:59:52.216Z,94.90
2019-03-25T06:02:20.088Z,94.90
2019-03-25T06:04:47.980Z,94.90
2019-03-25T06:07:15.906Z,95.00
2019-03-25T06:09:43.817Z,95.00
2019-03-25T06:12:11.729Z,94.90
2019-03-25T06:14:39.590Z,95.00
2019-03-25T06:17:07.544Z,95.00
2019-03-25T06:19:35.478Z,94.90
2019-03-25T06:22:03.401Z,94.80
2019-03-25T06:24:31.296Z,94.70
2019-03-25T06:26:59.072Z,94.50
2019-03-25T06:29:26.956Z,94.30
2019-03-25T06:31:54.856Z,94.10
2019-03-25T06:34:22.731Z,93.90
2019-03-25T06:36:50.645Z,93.80
2019-03-25T06:39:18.558Z,93.60
2019-03-25T06:41:46.477Z,93.60
2019-03-25T06:44:14.377Z,93.50
2019-03-25T06:46:42.264Z,93.60
2019-03-25T06:49:10.308Z,93.50
2019-03-25T06:51:38.091Z,93.40
2019-03-25T06:54:05.954Z,93.30
2019-03-25T06:56:33.840Z,93.30
2019-03-25T06:59:01.641Z,93.20
2019-03-25T07:01:29.535Z,93.10
2019-03-25T07:03:57.319Z,92.80
2019-03-25T07:06:25.181Z,92.60
2019-03-25T07:08:52.948Z,92.40
2019-03-25T07:11:20.986Z,92.10
2019-03-25T07:13:48.861Z,91.70
2019-03-25T07:16:16.717Z,91.30
2019-03-25T07:18:44.571Z,90.90
2019-03-25T07:21:12.329Z,90.50
2019-03-25T07:23:40.186Z,90.20
2019-03-25T07:26:07.920Z,90.00
2019-03-25T07:28:35.755Z,89.80
2019-03-25T07:31:03.684Z,88.80
2019-03-25T07:33:31.454Z,88.60
2019-03-25T07:35:59.406Z,88.00
2019-03-25T07:38:27.157Z,87.50
2019-03-25T07:40:54.936Z,87.10
2019-03-25T07:43:22.832Z,86.30
2019-03-25T07:45:50.698Z,85.70
2019-03-25T07:48:18.610Z,85.60
2019-03-25T07:50:46.540Z,85.50
2019-03-25T07:53:14.412Z,85.20
2019-03-25T07:55:42.246Z,85.20
2019-03-25T07:58:10.072Z,85.10
2019-03-25T08:00:37.897Z,85.10
2019-03-25T08:03:05.682Z,85.10
2019-03-25T08:05:33.555Z,85.00
2019-03-25T08:08:01.313Z,84.90
2019-03-25T08:10:33.141Z,84.90
2019-03-25T08:13:00.962Z,84.40
2019-03-25T08:15:28.772Z,84.50
2019-03-25T08:17:56.556Z,84.50
2019-03-25T08:20:24.331Z,84.60
2019-03-25T08:22:52.173Z,84.40
2019-03-25T08:25:20.052Z,84.00
2019-03-25T08:27:59.197Z,83.20
2019-03-25T08:30:17.798Z,82.40
2019-03-25T08:32:45.648Z,81.10
2019-03-25T08:35:13.402Z,78.50
2019-03-25T08:37:41.278Z,77.50
2019-03-25T08:40:10.223Z,76.90
2019-03-25T08:42:38.083Z,76.70
2019-03-25T08:45:06.490Z,75.70
2019-03-25T08:47:34.216Z,74.50
2019-03-25T08:50:02.134Z,73.10
2019-03-25T08:52:29.963Z,71.40
2019-03-25T08:54:57.740Z,70.20
2019-03-25T08:57:25.502Z,68.30
2019-03-25T08:59:53.371Z,67.90
2019-03-25T09:02:21.227Z,67.90
2019-03-25T09:04:49.145Z,68.10
2019-03-25T09:07:17.106Z,68.60
2019-03-25T09:09:44.977Z,69.10
2019-03-25T09:12:12.721Z,69.80
2019-03-25T09:14:40.574Z,70.50
2019-03-25T09:17:08.437Z,71.30
2019-03-25T09:19:36.185Z,72.20
2019-03-25T09:22:04.338Z,72.60
2019-03-25T09:24:33.127Z,72.90
2019-03-25T09:27:01.203Z,73.50
2019-03-25T09:29:28.956Z,73.80
2019-03-25T09:31:56.699Z,73.80
2019-03-25T09:34:24.441Z,73.00
2019-03-25T09:36:52.350Z,72.20
2019-03-25T09:39:20.193Z,70.90
2019-03-25T09:41:47.955Z,70.70
2019-03-25T09:44:15.760Z,70.40
2019-03-25T09:46:43.721Z,68.70
2019-03-25T09:49:11.574Z,64.30
2019-03-25T09:51:39.466Z,61.70
2019-03-25T09:54:07.217Z,60.00
2019-03-25T09:56:35.094Z,58.50
2019-03-25T09:59:02.964Z,58.00
2019-03-25T10:01:30.861Z,56.10
2019-03-25T10:03:58.592Z,52.80
2019-03-25T10:06:26.460Z,52.70
2019-03-25T10:08:54.220Z,54.40
2019-03-25T10:11:21.953Z,55.60
2019-03-25T10:13:49.805Z,55.70
2019-03-25T10:16:17.549Z,54.70
2019-03-25T10:18:45.300Z,55.00
2019-03-25T10:21:13.127Z,54.10
2019-03-25T10:23:41.012Z,52.90
2019-03-25T10:26:08.862Z,52.50
2019-03-25T10:28:47.830Z,50.20
2019-03-25T10:31:06.418Z,47.10
2019-03-25T10:33:34.262Z,44.20
2019-03-25T10:36:02.144Z,44.30
2019-03-25T10:38:29.898Z,47.30
2019-03-25T10:40:57.802Z,53.50
2019-03-25T10:43:25.674Z,57.40
2019-03-25T10:45:53.556Z,57.60
2019-03-25T10:48:21.436Z,55.40
2019-03-25T10:50:49.301Z,53.80
2019-03-25T10:53:17.046Z,54.40
2019-03-25T10:55:44.977Z,55.00
2019-03-25T10:58:12.895Z,54.40
2019-03-25T11:00:40.781Z,57.10
2019-03-25T11:03:08.634Z,59.60
2019-03-25T11:05:36.527Z,62.80
2019-03-25T11:08:04.392Z,65.90
2019-03-25T11:10:32.264Z,66.20
2019-03-25T11:13:00.054Z,60.60
2019-03-25T11:15:27.832Z,55.80
2019-03-25T11:17:55.630Z,51.80
2019-03-25T11:20:23.522Z,49.40
2019-03-25T11:22:51.385Z,46.50
2019-03-25T11:25:19.247Z,45.00
2019-03-25T11:27:54.255Z,43.80
2019-03-25T11:30:23.282Z,41.90
2019-03-25T11:32:51.134Z,39.90
2019-03-25T11:35:18.877Z,38.90
2019-03-25T11:37:46.743Z,38.70
2019-03-25T11:40:15.107Z,38.50
2019-03-25T11:42:42.908Z,38.90
2019-03-25T11:45:11.159Z,40.20
2019-03-25T11:47:38.942Z,40.70
2019-03-25T11:50:07.182Z,40.60
2019-03-25T11:52:34.938Z,40.80
2019-03-25T11:55:03.167Z,42.80
2019-03-25T11:57:30.934Z,45.50
2019-03-25T11:59:58.685Z,48.10
2019-03-25T12:02:26.451Z,50.80
2019-03-25T12:04:54.310Z,53.10
2019-03-25T12:07:22.192Z,55.40
2019-03-25T12:09:50.058Z,57.20
2019-03-25T12:12:18.076Z,58.40
2019-03-25T12:14:45.832Z,59.70
2019-03-25T12:17:13.602Z,60.90
2019-03-25T12:19:41.444Z,60.90
2019-03-25T12:22:09.312Z,60.60
2019-03-25T12:24:37.522Z,60.00
2019-03-25T12:27:05.481Z,59.50
2019-03-25T12:29:33.243Z,58.60
2019-03-25T12:32:01.076Z,58.60
2019-03-25T12:34:28.896Z,58.10
2019-03-25T12:36:56.882Z,57.60
2019-03-25T12:39:24.628Z,57.00
2019-03-25T12:41:52.492Z,56.50
2019-03-25T12:44:20.237Z,55.80
2019-03-25T12:46:48.796Z,55.40
2019-03-25T12:49:16.588Z,54.40
2019-03-25T12:51:44.438Z,54.10
2019-03-25T12:54:12.332Z,54.20
2019-03-25T12:56:40.180Z,54.00
2019-03-25T12:59:08.195Z,54.50
2019-03-25T13:01:35.936Z,55.10
2019-03-25T13:04:03.679Z,55.60
2019-03-25T13:06:31.551Z,56.10
2019-03-25T13:09:00.257Z,58.20
2019-03-25T13:11:28.241Z,65.20
2019-03-25T13:13:55.989Z,71.20
2019-03-25T13:16:23.758Z,74.60
2019-03-25T13:18:51.541Z,75.10
2019-03-25T13:21:19.317Z,76.10
2019-03-25T13:23:47.209Z,77.20
2019-03-25T13:26:15.062Z,77.50
2019-03-25T13:28:42.833Z,76.90
2019-03-25T13:31:10.699Z,76.20
2019-03-25T13:33:38.617Z,76.10
2019-03-25T13:36:06.832Z,74.10
2019-03-25T13:38:34.579Z,71.60
2019-03-25T13:41:02.605Z,70.80
2019-03-25T13:43:30.447Z,70.20
2019-03-25T13:46:05.300Z,69.70
2019-03-25T13:48:28.146Z,69.10
2019-03-25T13:50:56.114Z,68.00
2019-03-25T13:53:23.985Z,66.40
2019-03-25T13:55:51.853Z,65.40
2019-03-25T13:58:19.725Z,64.60
2019-03-25T14:00:47.615Z,64.40
2019-03-25T14:03:15.495Z,63.50
2019-03-25T14:05:43.240Z,62.80
2019-03-25T14:08:11.081Z,62.70
2019-03-25T14:10:39.129Z,63.30
2019-03-25T14:13:07.043Z,64.20
2019-03-25T14:15:34.878Z,64.90
2019-03-25T14:18:02.634Z,65.10
2019-03-25T14:20:30.563Z,65.80
2019-03-25T14:22:58.340Z,67.10
2019-03-25T14:25:26.240Z,68.40
2019-03-25T14:27:53.998Z,69.70
2019-03-25T14:30:21.844Z,70.40
2019-03-25T14:32:49.738Z,70.50
2019-03-25T14:35:17.516Z,71.40
2019-03-25T14:37:45.669Z,73.90
2019-03-25T14:40:13.664Z,75.90
2019-03-25T14:42:41.820Z,76.70
2019-03-25T14:45:09.995Z,76.80
2019-03-25T14:47:37.845Z,77.20
2019-03-25T14:50:06.108Z,75.80
2019-03-25T14:52:33.997Z,75.10
2019-03-25T14:55:01.790Z,74.50
2019-03-25T14:57:29.692Z,74.10
2019-03-25T14:59:57.469Z,75.00
2019-03-25T15:02:25.319Z,77.60
2019-03-25T15:04:53.169Z,80.00
2019-03-25T15:07:21.057Z,80.70
2019-03-25T15:09:48.846Z,82.30
2019-03-25T15:12:16.759Z,85.20
2019-03-25T15:14:44.601Z,87.20
2019-03-25T15:17:12.830Z,88.00
2019-03-25T15:19:40.597Z,89.50
2019-03-25T15:22:08.459Z,90.20
2019-03-25T15:24:36.701Z,90.30
2019-03-25T15:27:04.688Z,90.60
2019-03-25T15:29:32.485Z,90.50
2019-03-25T15:32:00.401Z,90.20
2019-03-25T15:34:28.245Z,89.70
2019-03-25T15:36:56.030Z,89.50
2019-03-25T15:39:23.877Z,88.50
2019-03-25T15:41:51.649Z,87.90
2019-03-25T15:44:19.447Z,87.00
2019-03-25T15:46:55.380Z,86.40
2019-03-25T15:49:17.073Z,86.20
2019-03-25T15:51:44.949Z,85.60
2019-03-25T15:54:12.826Z,84.30
2019-03-25T15:56:40.593Z,83.00
2019-03-25T15:59:08.525Z,81.50
2019-03-25T16:01:36.248Z,80.70
2019-03-25T16:04:04.246Z,80.60
2019-03-25T16:06:32.096Z,80.10
2019-03-25T16:08:59.864Z,80.10
2019-03-25T16:11:27.720Z,79.30
2019-03-25T16:13:55.476Z,77.50
2019-03-25T16:16:23.336Z,76.10
2019-03-25T16:18:51.081Z,75.30
2019-03-25T16:21:18.870Z,73.70
2019-03-25T16:23:46.750Z,72.60
2019-03-25T16:26:14.611Z,73.30
2019-03-25T16:28:42.492Z,74.10
2019-03-25T16:31:10.448Z,74.90
2019-03-25T16:33:38.220Z,75.70
2019-03-25T16:36:06.036Z,76.10
2019-03-25T16:38:33.930Z,76.30
2019-03-25T16:41:01.802Z,76.20
2019-03-25T16:43:29.661Z,76.60
2019-03-25T16:45:57.533Z,76.90
2019-03-25T16:48:25.317Z,77.70
2019-03-25T16:50:53.077Z,78.50
2019-03-25T16:53:20.907Z,79.20
2019-03-25T16:55:48.776Z,80.00
2019-03-25T16:58:16.664Z,81.00
2019-03-25T17:00:44.569Z,81.50
2019-03-25T17:03:12.315Z,81.80
2019-03-25T17:05:42.373Z,82.00
2019-03-25T17:08:09.869Z,82.10
2019-03-25T17:10:37.772Z,82.00
2019-03-25T17:13:07.723Z,82.00
2019-03-25T17:15:35.632Z,81.70
2019-03-25T17:18:03.467Z,81.30
2019-03-25T17:20:31.548Z,81.20
2019-03-25T17:22:59.412Z,81.10
2019-03-25T17:25:27.536Z,81.00
2019-03-25T17:27:55.427Z,81.00
2019-03-25T17:30:23.610Z,80.70
2019-03-25T17:32:51.500Z,80.90
2019-03-25T17:35:20.640Z,81.00
2019-03-25T17:37:48.541Z,81.10
2019-03-25T17:40:16.447Z,80.80
2019-03-25T17:42:44.360Z,80.80
2019-03-25T17:45:13.034Z,80.90
2019-03-25T17:47:41.015Z,80.90
2019-03-25T17:50:09.426Z,80.60
2019-03-25T17:52:37.289Z,80.30
2019-03-25T17:55:05.466Z,80.00
2019-03-25T17:57:33.274Z,79.80
2019-03-25T18:00:03.077Z,79.60
2019-03-25T18:02:30.964Z,78.80
2019-03-25T18:04:58.845Z,78.50
2019-03-25T18:07:26.738Z,78.90
2019-03-25T18:09:54.544Z,77.40
2019-03-25T18:12:22.442Z,77.20
2019-03-25T18:14:50.319Z,76.80
2019-03-25T18:17:18.190Z,76.30
2019-03-25T18:19:45.948Z,76.20
2019-03-25T18:22:13.922Z,76.00
2019-03-25T18:24:43.878Z,76.10
2019-03-25T18:27:11.753Z,75.80
2019-03-25T18:29:39.608Z,75.40
2019-03-25T18:32:07.451Z,75.00
2019-03-25T18:34:35.340Z,74.30
2019-03-25T18:37:03.437Z,73.20
2019-03-25T18:39:31.257Z,72.50
2019-03-25T18:41:59.207Z,72.80
2019-03-25T18:44:27.169Z,72.90
2019-03-25T18:46:55.140Z,73.10
2019-03-25T18:49:23.117Z,73.20
2019-03-25T18:51:51.004Z,73.50
2019-03-25T18:54:18.935Z,73.60
2019-03-25T18:56:46.965Z,73.70
2019-03-25T18:59:14.881Z,74.00
2019-03-25T19:01:53.840Z,74.30
2019-03-25T19:04:12.575Z,74.60
2019-03-25T19:06:41.789Z,75.00
2019-03-25T19:09:09.690Z,75.10
2019-03-25T19:11:37.593Z,75.10
2019-03-25T19:14:05.667Z,75.20
2019-03-25T19:16:33.574Z,75.40
2019-03-25T19:19:01.555Z,75.60
2019-03-25T19:21:29.500Z,75.70
2019-03-25T19:23:57.520Z,75.60
2019-03-25T19:26:25.546Z,75.50
2019-03-25T19:28:53.505Z,75.60
2019-03-25T19:31:21.504Z,75.60
2019-03-25T19:33:49.409Z,75.70
2019-03-25T19:36:17.388Z,75.90
2019-03-25T19:38:45.412Z,75.80
2019-03-25T19:41:13.392Z,75.80
2019-03-25T19:43:41.219Z,75.50
2019-03-25T19:46:09.181Z,75.30
2019-03-25T19:48:37.170Z,75.00
2019-03-25T19:51:05.129Z,75.00
2019-03-25T19:53:33.324Z,75.20
2019-03-25T19:56:01.148Z,75.20
2019-03-25T19:58:29.082Z,75.50
2019-03-25T20:00:57.087Z,75.50
2019-03-25T20:03:24.977Z,75.70
2019-03-25T20:05:52.941Z,75.80
2019-03-25T20:08:20.942Z,76.00
2019-03-25T20:10:48.981Z,76.30
2019-03-25T20:13:16.916Z,76.50
2019-03-25T20:15:46.394Z,76.70
2019-03-25T20:18:14.640Z,76.80
2019-03-25T20:20:42.513Z,77.00
2019-03-25T20:23:10.455Z,77.20
2019-03-25T20:25:38.638Z,77.40
2019-03-25T20:28:06.554Z,77.40
2019-03-25T20:30:34.452Z,77.50
2019-03-25T20:33:02.417Z,77.60
2019-03-25T20:35:30.704Z,77.80
2019-03-25T20:37:58.962Z,77.90
2019-03-25T20:40:26.904Z,78.00
2019-03-25T20:42:54.942Z,78.20
2019-03-25T20:45:23.005Z,78.40
2019-03-25T20:47:51.011Z,78.60
2019-03-25T20:50:18.916Z,78.70
2019-03-25T20:52:46.928Z,78.90
2019-03-25T20:55:14.955Z,79.00
2019-03-25T20:57:42.947Z,79.20
2019-03-25T21:00:11.531Z,79.40
2019-03-25T21:02:45.037Z,79.60
2019-03-25T21:05:09.818Z,79.90
2019-03-25T21:07:37.884Z,80.30
2019-03-25T21:10:06.508Z,80.80
2019-03-25T21:12:34.502Z,81.40
2019-03-25T21:15:02.525Z,81.70
2019-03-25T21:17:30.448Z,81.90
2019-03-25T21:19:58.468Z,82.20
2019-03-25T21:22:26.456Z,82.40
2019-03-25T21:24:54.419Z,82.50
2019-03-25T21:27:22.485Z,82.60
2019-03-25T21:29:50.514Z,82.80
2019-03-25T21:32:18.502Z,82.80
2019-03-25T21:34:46.641Z,82.90
2019-03-25T21:37:14.573Z,83.10
2019-03-25T21:39:42.572Z,83.30
2019-03-25T21:42:10.610Z,83.20
2019-03-25T21:44:38.628Z,83.30
2019-03-25T21:47:06.666Z,83.30
2019-03-25T21:49:34.632Z,83.40
2019-03-25T21:52:02.594Z,83.50
2019-03-25T21:54:31.599Z,83.60
2019-03-25T21:56:59.637Z,83.70
2019-03-25T21:59:27.644Z,83.70
2019-03-25T22:01:55.657Z,83.80
2019-03-25T22:04:23.581Z,84.00
2019-03-25T22:06:51.469Z,83.90
2019-03-25T22:09:19.410Z,84.00
2019-03-25T22:11:47.423Z,83.80
2019-03-25T22:14:15.398Z,83.90
2019-03-25T22:16:43.361Z,84.00
2019-03-25T22:19:12.096Z,84.10
2019-03-25T22:21:40.024Z,84.10
2019-03-25T22:24:07.966Z,84.20
2019-03-25T22:26:35.935Z,84.30
2019-03-25T22:29:03.872Z,84.40
2019-03-25T22:31:31.687Z,84.50
2019-03-25T22:33:59.609Z,84.50
2019-03-25T22:36:27.560Z,84.60
2019-03-25T22:38:55.442Z,84.70
2019-03-25T22:41:23.445Z,84.90
2019-03-25T22:43:51.371Z,85.10
2019-03-25T22:46:19.302Z,85.20
2019-03-25T22:48:47.190Z,85.30
2019-03-25T22:51:15.103Z,85.50
2019-03-25T22:53:43.018Z,85.80
2019-03-25T22:56:10.938Z,85.90
2019-03-25T22:58:38.953Z,86.00
2019-03-25T23:01:06.852Z,86.10
2019-03-25T23:03:39.355Z,86.20
2019-03-25T23:06:04.590Z,86.30
2019-03-25T23:08:32.464Z,86.30
2019-03-25T23:11:00.380Z,86.40
2019-03-25T23:13:28.330Z,86.50
2019-03-25T23:15:56.283Z,86.60
2019-03-25T23:18:24.291Z,86.70
2019-03-25T23:20:52.199Z,86.60
2019-03-25T23:23:20.147Z,86.70
2019-03-25T23:25:48.153Z,86.90
2019-03-25T23:28:16.101Z,87.00
2019-03-25T23:30:43.961Z,87.00
2019-03-25T23:33:11.940Z,87.10
2019-03-25T23:35:39.851Z,87.20
2019-03-25T23:38:07.833Z,87.30
2019-03-25T23:40:35.779Z,87.40
2019-03-25T23:43:03.696Z,87.50
2019-03-25T23:45:31.607Z,87.50
2019-03-25T23:47:59.535Z,87.70
2019-03-25T23:50:27.461Z,87.70
2019-03-25T23:52:55.383Z,87.80
2019-03-25T23:55:23.281Z,87.80
2019-03-25T23:57:51.199Z,87.80
